sensor_id;sensor_type;location;lat;lon;timestamp;P1;durP1;ratioP1;P2;durP2;ratioP2
3149;SDS011;32503;47.748;8.960;2024-03-22T00:00:38;6.50;;;5.93;;
3149;SDS011;32503;47.748;8.960;2024-03-22T00:03:05;6.90;;;6.40;;
3149;SDS011;32503;47.748;8.960;2024-03-22T00:05:32;8.23;;;7.53;;
3149;SDS011;32503;47.748;8.960;2024-03-22T00:07:59;9.37;;;7.27;;
3149;SDS011;32503;47.748;8.960;2024-03-22T00:10:26;8.60;;;7.70;;
3149;SDS011;32503;47.748;8.960;2024-03-22T00:12:52;8.93;;;8.03;;
3149;SDS011;32503;47.748;8.960;2024-03-22T00:15:19;11.27;;;9.40;;
3149;SDS011;32503;47.748;8.960;2024-03-22T00:17:45;9.77;;;8.40;;
3149;SDS011;32503;47.748;8.960;2024-03-22T00:20:14;10.53;;;7.67;;
3149;SDS011;32503;47.748;8.960;2024-03-22T00:22:40;8.50;;;7.20;;
3149;SDS011;32503;47.748;8.960;2024-03-22T00:25:07;9.63;;;7.63;;
3149;SDS011;32503;47.748;8.960;2024-03-22T00:27:34;7.43;;;6.73;;
3149;SDS011;32503;47.748;8.960;2024-03-22T00:30:01;6.80;;;6.23;;
3149;SDS011;32503;47.748;8.960;2024-03-22T00:32:27;6.50;;;6.00;;
3149;SDS011;32503;47.748;8.960;2024-03-22T00:34:54;8.03;;;6.30;;
3149;SDS011;32503;47.748;8.960;2024-03-22T00:37:21;6.30;;;5.80;;
3149;SDS011;32503;47.748;8.960;2024-03-22T00:39:48;7.50;;;6.73;;
3149;SDS011;32503;47.748;8.960;2024-03-22T00:42:14;6.90;;;6.50;;
3149;SDS011;32503;47.748;8.960;2024-03-22T00:44:41;5.60;;;5.10;;
3149;SDS011;32503;47.748;8.960;2024-03-22T00:47:07;6.00;;;5.40;;
3149;SDS011;32503;47.748;8.960;2024-03-22T00:49:34;6.60;;;6.13;;
3149;SDS011;32503;47.748;8.960;2024-03-22T00:52:00;6.77;;;6.17;;
3149;SDS011;32503;47.748;8.960;2024-03-22T00:54:29;5.77;;;5.37;;
3149;SDS011;32503;47.748;8.960;2024-03-22T00:56:55;6.27;;;5.87;;
3149;SDS011;32503;47.748;8.960;2024-03-22T00:59:22;6.57;;;5.77;;
3149;SDS011;32503;47.748;8.960;2024-03-22T01:01:48;6.23;;;5.63;;
3149;SDS011;32503;47.748;8.960;2024-03-22T01:04:15;6.17;;;5.63;;
3149;SDS011;32503;47.748;8.960;2024-03-22T01:06:41;6.50;;;6.10;;
3149;SDS011;32503;47.748;8.960;2024-03-22T01:09:08;5.73;;;5.40;;
3149;SDS011;32503;47.748;8.960;2024-03-22T01:11:36;7.27;;;6.63;;
3149;SDS011;32503;47.748;8.960;2024-03-22T01:14:03;6.03;;;5.63;;
3149;SDS011;32503;47.748;8.960;2024-03-22T01:16:29;7.47;;;5.77;;
3149;SDS011;32503;47.748;8.960;2024-03-22T01:18:56;7.87;;;5.57;;
3149;SDS011;32503;47.748;8.960;2024-03-22T01:21:22;5.87;;;5.50;;
3149;SDS011;32503;47.748;8.960;2024-03-22T01:23:50;5.93;;;5.60;;
3149;SDS011;32503;47.748;8.960;2024-03-22T01:26:17;6.90;;;6.23;;
3149;SDS011;32503;47.748;8.960;2024-03-22T01:28:45;6.00;;;5.50;;
3149;SDS011;32503;47.748;8.960;2024-03-22T01:31:11;6.57;;;6.13;;
3149;SDS011;32503;47.748;8.960;2024-03-22T01:33:38;6.93;;;6.33;;
3149;SDS011;32503;47.748;8.960;2024-03-22T01:36:05;6.87;;;6.30;;
3149;SDS011;32503;47.748;8.960;2024-03-22T01:38:32;8.13;;;7.40;;
3149;SDS011;32503;47.748;8.960;2024-03-22T01:40:58;9.83;;;7.00;;
3149;SDS011;32503;47.748;8.960;2024-03-22T01:43:25;7.00;;;6.30;;
3149;SDS011;32503;47.748;8.960;2024-03-22T01:45:52;6.57;;;6.17;;
3149;SDS011;32503;47.748;8.960;2024-03-22T01:48:20;6.17;;;5.80;;
3149;SDS011;32503;47.748;8.960;2024-03-22T01:50:46;6.47;;;6.00;;
3149;SDS011;32503;47.748;8.960;2024-03-22T01:53:13;6.23;;;5.73;;
3149;SDS011;32503;47.748;8.960;2024-03-22T01:55:39;6.03;;;5.53;;
3149;SDS011;32503;47.748;8.960;2024-03-22T01:58:06;6.83;;;6.37;;
3149;SDS011;32503;47.748;8.960;2024-03-22T02:00:32;8.17;;;7.00;;
3149;SDS011;32503;47.748;8.960;2024-03-22T02:03:01;6.97;;;6.37;;
3149;SDS011;32503;47.748;8.960;2024-03-22T02:05:27;7.40;;;6.67;;
3149;SDS011;32503;47.748;8.960;2024-03-22T02:07:54;6.43;;;6.00;;
3149;SDS011;32503;47.748;8.960;2024-03-22T02:10:20;7.10;;;6.40;;
3149;SDS011;32503;47.748;8.960;2024-03-22T02:12:47;7.20;;;6.53;;
3149;SDS011;32503;47.748;8.960;2024-03-22T02:15:14;7.20;;;6.67;;
3149;SDS011;32503;47.748;8.960;2024-03-22T02:17:41;8.50;;;7.17;;
3149;SDS011;32503;47.748;8.960;2024-03-22T02:20:09;6.93;;;6.43;;
3149;SDS011;32503;47.748;8.960;2024-03-22T02:22:37;9.03;;;7.13;;
3149;SDS011;32503;47.748;8.960;2024-03-22T02:25:05;11.70;;;6.83;;
3149;SDS011;32503;47.748;8.960;2024-03-22T02:27:33;7.30;;;6.67;;
3149;SDS011;32503;47.748;8.960;2024-03-22T02:29:59;7.30;;;6.70;;
3149;SDS011;32503;47.748;8.960;2024-03-22T02:32:26;7.07;;;6.37;;
3149;SDS011;32503;47.748;8.960;2024-03-22T02:34:52;8.83;;;7.90;;
3149;SDS011;32503;47.748;8.960;2024-03-22T02:37:20;7.40;;;6.87;;
3149;SDS011;32503;47.748;8.960;2024-03-22T02:39:46;8.67;;;6.53;;
3149;SDS011;32503;47.748;8.960;2024-03-22T02:42:14;7.47;;;6.83;;
3149;SDS011;32503;47.748;8.960;2024-03-22T02:44:40;6.80;;;6.30;;
3149;SDS011;32503;47.748;8.960;2024-03-22T02:47:08;6.37;;;5.97;;
3149;SDS011;32503;47.748;8.960;2024-03-22T02:49:35;6.40;;;5.90;;
3149;SDS011;32503;47.748;8.960;2024-03-22T02:52:02;7.10;;;6.63;;
3149;SDS011;32503;47.748;8.960;2024-03-22T02:54:28;8.17;;;7.43;;
3149;SDS011;32503;47.748;8.960;2024-03-22T02:56:55;8.13;;;7.63;;
3149;SDS011;32503;47.748;8.960;2024-03-22T02:59:25;7.70;;;6.90;;
3149;SDS011;32503;47.748;8.960;2024-03-22T03:01:52;8.43;;;7.73;;
3149;SDS011;32503;47.748;8.960;2024-03-22T03:04:18;8.00;;;7.20;;
3149;SDS011;32503;47.748;8.960;2024-03-22T03:06:45;8.60;;;7.40;;
3149;SDS011;32503;47.748;8.960;2024-03-22T03:09:11;7.10;;;6.43;;
3149;SDS011;32503;47.748;8.960;2024-03-22T03:11:38;11.80;;;7.73;;
3149;SDS011;32503;47.748;8.960;2024-03-22T03:14:04;8.83;;;7.60;;
3149;SDS011;32503;47.748;8.960;2024-03-22T03:16:33;8.10;;;7.60;;
3149;SDS011;32503;47.748;8.960;2024-03-22T03:18:59;7.93;;;7.23;;
3149;SDS011;32503;47.748;8.960;2024-03-22T03:21:26;8.93;;;8.03;;
3149;SDS011;32503;47.748;8.960;2024-03-22T03:23:52;8.07;;;7.33;;
3149;SDS011;32503;47.748;8.960;2024-03-22T03:26:19;9.63;;;8.00;;
3149;SDS011;32503;47.748;8.960;2024-03-22T03:28:45;7.53;;;6.93;;
3149;SDS011;32503;47.748;8.960;2024-03-22T03:31:12;8.07;;;7.40;;
3149;SDS011;32503;47.748;8.960;2024-03-22T03:33:39;8.50;;;7.80;;
3149;SDS011;32503;47.748;8.960;2024-03-22T03:36:07;8.40;;;7.70;;
3149;SDS011;32503;47.748;8.960;2024-03-22T03:38:33;11.00;;;9.40;;
3149;SDS011;32503;47.748;8.960;2024-03-22T03:41:02;8.80;;;7.90;;
3149;SDS011;32503;47.748;8.960;2024-03-22T03:43:29;13.30;;;8.87;;
3149;SDS011;32503;47.748;8.960;2024-03-22T03:45:56;8.53;;;7.73;;
3149;SDS011;32503;47.748;8.960;2024-03-22T03:48:22;8.77;;;7.77;;
3149;SDS011;32503;47.748;8.960;2024-03-22T03:50:54;8.70;;;7.67;;
3149;SDS011;32503;47.748;8.960;2024-03-22T03:53:24;8.30;;;7.53;;
3149;SDS011;32503;47.748;8.960;2024-03-22T03:55:51;7.33;;;6.77;;
3149;SDS011;32503;47.748;8.960;2024-03-22T03:58:17;8.30;;;7.57;;
3149;SDS011;32503;47.748;8.960;2024-03-22T04:00:44;9.37;;;7.53;;
3149;SDS011;32503;47.748;8.960;2024-03-22T04:03:10;8.47;;;7.60;;
3149;SDS011;32503;47.748;8.960;2024-03-22T04:05:37;8.83;;;7.73;;
3149;SDS011;32503;47.748;8.960;2024-03-22T04:08:05;11.10;;;8.23;;
3149;SDS011;32503;47.748;8.960;2024-03-22T04:10:32;9.87;;;7.70;;
3149;SDS011;32503;47.748;8.960;2024-03-22T04:12:58;9.33;;;7.20;;
3149;SDS011;32503;47.748;8.960;2024-03-22T04:15:25;8.47;;;7.67;;
3149;SDS011;32503;47.748;8.960;2024-03-22T04:17:51;8.30;;;7.50;;
3149;SDS011;32503;47.748;8.960;2024-03-22T04:20:18;8.47;;;7.67;;
3149;SDS011;32503;47.748;8.960;2024-03-22T04:22:44;8.30;;;7.30;;
3149;SDS011;32503;47.748;8.960;2024-03-22T04:25:15;7.70;;;6.90;;
3149;SDS011;32503;47.748;8.960;2024-03-22T04:27:41;9.27;;;7.60;;
3149;SDS011;32503;47.748;8.960;2024-03-22T04:30:08;6.83;;;6.33;;
3149;SDS011;32503;47.748;8.960;2024-03-22T04:32:36;7.60;;;7.00;;
3149;SDS011;32503;47.748;8.960;2024-03-22T04:35:03;7.57;;;6.93;;
3149;SDS011;32503;47.748;8.960;2024-03-22T04:37:31;8.03;;;7.23;;
3149;SDS011;32503;47.748;8.960;2024-03-22T04:39:58;9.57;;;7.03;;
3149;SDS011;32503;47.748;8.960;2024-03-22T04:42:26;8.30;;;7.60;;
3149;SDS011;32503;47.748;8.960;2024-03-22T04:44:53;8.23;;;7.43;;
3149;SDS011;32503;47.748;8.960;2024-03-22T04:47:19;8.67;;;7.80;;
3149;SDS011;32503;47.748;8.960;2024-03-22T04:49:46;7.87;;;7.20;;
3149;SDS011;32503;47.748;8.960;2024-03-22T04:52:12;8.47;;;7.67;;
3149;SDS011;32503;47.748;8.960;2024-03-22T04:54:40;7.80;;;6.87;;
3149;SDS011;32503;47.748;8.960;2024-03-22T04:57:06;7.53;;;6.93;;
3149;SDS011;32503;47.748;8.960;2024-03-22T04:59:34;9.07;;;8.17;;
3149;SDS011;32503;47.748;8.960;2024-03-22T05:02:00;7.67;;;6.97;;
3149;SDS011;32503;47.748;8.960;2024-03-22T05:04:27;7.83;;;7.00;;
3149;SDS011;32503;47.748;8.960;2024-03-22T05:06:53;8.97;;;7.30;;
3149;SDS011;32503;47.748;8.960;2024-03-22T05:09:20;8.50;;;7.70;;
3149;SDS011;32503;47.748;8.960;2024-03-22T05:11:46;7.40;;;6.70;;
3149;SDS011;32503;47.748;8.960;2024-03-22T05:14:15;7.93;;;7.20;;
3149;SDS011;32503;47.748;8.960;2024-03-22T05:16:43;8.80;;;7.50;;
3149;SDS011;32503;47.748;8.960;2024-03-22T05:19:10;7.73;;;7.13;;
3149;SDS011;32503;47.748;8.960;2024-03-22T05:21:36;9.83;;;8.70;;
3149;SDS011;32503;47.748;8.960;2024-03-22T05:24:03;7.50;;;6.90;;
3149;SDS011;32503;47.748;8.960;2024-03-22T05:26:30;7.80;;;7.00;;
3149;SDS011;32503;47.748;8.960;2024-03-22T05:29:01;7.60;;;7.13;;
3149;SDS011;32503;47.748;8.960;2024-03-22T05:31:27;8.40;;;7.60;;
3149;SDS011;32503;47.748;8.960;2024-03-22T05:33:56;7.77;;;7.07;;
3149;SDS011;32503;47.748;8.960;2024-03-22T05:36:22;9.90;;;9.20;;
3149;SDS011;32503;47.748;8.960;2024-03-22T05:38:49;7.77;;;7.07;;
3149;SDS011;32503;47.748;8.960;2024-03-22T05:41:15;8.67;;;7.80;;
3149;SDS011;32503;47.748;8.960;2024-03-22T05:43:42;7.70;;;7.10;;
3149;SDS011;32503;47.748;8.960;2024-03-22T05:46:08;9.43;;;7.70;;
3149;SDS011;32503;47.748;8.960;2024-03-22T05:48:35;8.07;;;7.33;;
3149;SDS011;32503;47.748;8.960;2024-03-22T05:51:02;7.60;;;6.97;;
3149;SDS011;32503;47.748;8.960;2024-03-22T05:53:30;10.37;;;8.07;;
3149;SDS011;32503;47.748;8.960;2024-03-22T05:55:56;8.97;;;8.30;;
3149;SDS011;32503;47.748;8.960;2024-03-22T05:58:23;9.73;;;8.83;;
3149;SDS011;32503;47.748;8.960;2024-03-22T06:00:49;8.60;;;7.40;;
3149;SDS011;32503;47.748;8.960;2024-03-22T06:03:18;8.90;;;8.10;;
3149;SDS011;32503;47.748;8.960;2024-03-22T06:05:44;9.30;;;8.53;;
3149;SDS011;32503;47.748;8.960;2024-03-22T06:08:13;8.40;;;7.70;;
3149;SDS011;32503;47.748;8.960;2024-03-22T06:10:44;15.03;;;9.87;;
3149;SDS011;32503;47.748;8.960;2024-03-22T06:13:11;8.80;;;7.97;;
3149;SDS011;32503;47.748;8.960;2024-03-22T06:15:37;10.87;;;9.27;;
3149;SDS011;32503;47.748;8.960;2024-03-22T06:18:04;9.30;;;8.50;;
3149;SDS011;32503;47.748;8.960;2024-03-22T06:20:30;8.50;;;6.50;;
3149;SDS011;32503;47.748;8.960;2024-03-22T06:22:58;7.63;;;7.13;;
3149;SDS011;32503;47.748;8.960;2024-03-22T06:25:25;8.50;;;7.70;;
3149;SDS011;32503;47.748;8.960;2024-03-22T06:27:52;8.67;;;7.87;;
3149;SDS011;32503;47.748;8.960;2024-03-22T06:30:18;7.70;;;7.10;;
3149;SDS011;32503;47.748;8.960;2024-03-22T06:32:45;9.40;;;8.50;;
3149;SDS011;32503;47.748;8.960;2024-03-22T06:35:11;8.73;;;8.00;;
3149;SDS011;32503;47.748;8.960;2024-03-22T06:37:39;8.33;;;7.50;;
3149;SDS011;32503;47.748;8.960;2024-03-22T06:40:06;8.53;;;7.83;;
3149;SDS011;32503;47.748;8.960;2024-03-22T06:42:36;9.47;;;8.57;;
3149;SDS011;32503;47.748;8.960;2024-03-22T06:45:02;9.90;;;8.80;;
3149;SDS011;32503;47.748;8.960;2024-03-22T06:47:29;9.53;;;8.67;;
3149;SDS011;32503;47.748;8.960;2024-03-22T06:49:55;7.63;;;7.13;;
3149;SDS011;32503;47.748;8.960;2024-03-22T06:52:23;8.87;;;8.10;;
3149;SDS011;32503;47.748;8.960;2024-03-22T06:54:49;9.90;;;8.90;;
3149;SDS011;32503;47.748;8.960;2024-03-22T06:57:17;9.97;;;9.00;;
3149;SDS011;32503;47.748;8.960;2024-03-22T06:59:44;9.47;;;8.63;;
3149;SDS011;32503;47.748;8.960;2024-03-22T07:02:11;15.00;;;8.90;;
3149;SDS011;32503;47.748;8.960;2024-03-22T07:04:39;8.87;;;8.07;;
3149;SDS011;32503;47.748;8.960;2024-03-22T07:07:06;9.83;;;9.00;;
3149;SDS011;32503;47.748;8.960;2024-03-22T07:09:32;8.50;;;7.90;;
3149;SDS011;32503;47.748;8.960;2024-03-22T07:12:00;9.40;;;8.50;;
3149;SDS011;32503;47.748;8.960;2024-03-22T07:14:26;9.60;;;8.60;;
3149;SDS011;32503;47.748;8.960;2024-03-22T07:16:55;8.40;;;7.90;;
3149;SDS011;32503;47.748;8.960;2024-03-22T07:19:21;9.93;;;8.93;;
3149;SDS011;32503;47.748;8.960;2024-03-22T07:21:48;10.10;;;8.40;;
3149;SDS011;32503;47.748;8.960;2024-03-22T07:24:14;10.07;;;9.27;;
3149;SDS011;32503;47.748;8.960;2024-03-22T07:26:42;9.80;;;8.30;;
3149;SDS011;32503;47.748;8.960;2024-03-22T07:29:09;9.30;;;8.60;;
3149;SDS011;32503;47.748;8.960;2024-03-22T07:31:36;9.63;;;8.80;;
3149;SDS011;32503;47.748;8.960;2024-03-22T07:34:03;9.13;;;8.37;;
3149;SDS011;32503;47.748;8.960;2024-03-22T07:36:30;9.83;;;8.93;;
3149;SDS011;32503;47.748;8.960;2024-03-22T07:38:56;10.03;;;9.03;;
3149;SDS011;32503;47.748;8.960;2024-03-22T07:41:23;16.37;;;9.87;;
3149;SDS011;32503;47.748;8.960;2024-03-22T07:43:49;13.27;;;9.77;;
3149;SDS011;32503;47.748;8.960;2024-03-22T07:46:16;9.97;;;9.27;;
3149;SDS011;32503;47.748;8.960;2024-03-22T07:48:43;11.17;;;10.27;;
3149;SDS011;32503;47.748;8.960;2024-03-22T07:51:11;10.03;;;9.20;;
3149;SDS011;32503;47.748;8.960;2024-03-22T07:53:37;9.33;;;8.53;;
3149;SDS011;32503;47.748;8.960;2024-03-22T07:56:05;8.70;;;8.10;;
3149;SDS011;32503;47.748;8.960;2024-03-22T07:58:31;10.03;;;9.10;;
3149;SDS011;32503;47.748;8.960;2024-03-22T08:00:58;9.63;;;8.93;;
3149;SDS011;32503;47.748;8.960;2024-03-22T08:03:24;9.33;;;8.60;;
3149;SDS011;32503;47.748;8.960;2024-03-22T08:05:51;9.70;;;8.80;;
3149;SDS011;32503;47.748;8.960;2024-03-22T08:08:19;9.40;;;8.37;;
3149;SDS011;32503;47.748;8.960;2024-03-22T08:10:46;10.23;;;9.33;;
3149;SDS011;32503;47.748;8.960;2024-03-22T08:13:12;9.50;;;8.80;;
3149;SDS011;32503;47.748;8.960;2024-03-22T08:15:39;11.70;;;10.70;;
3149;SDS011;32503;47.748;8.960;2024-03-22T08:18:06;9.67;;;8.77;;
3149;SDS011;32503;47.748;8.960;2024-03-22T08:20:33;10.33;;;9.20;;
3149;SDS011;32503;47.748;8.960;2024-03-22T08:23:02;10.47;;;9.57;;
3149;SDS011;32503;47.748;8.960;2024-03-22T08:25:30;11.70;;;10.60;;
3149;SDS011;32503;47.748;8.960;2024-03-22T08:27:57;9.57;;;8.77;;
3149;SDS011;32503;47.748;8.960;2024-03-22T08:30:23;9.70;;;9.00;;
3149;SDS011;32503;47.748;8.960;2024-03-22T08:32:51;10.67;;;9.70;;
3149;SDS011;32503;47.748;8.960;2024-03-22T08:35:17;10.20;;;9.30;;
3149;SDS011;32503;47.748;8.960;2024-03-22T08:37:44;11.27;;;10.33;;
3149;SDS011;32503;47.748;8.960;2024-03-22T08:40:11;10.37;;;9.43;;
3149;SDS011;32503;47.748;8.960;2024-03-22T08:42:40;11.17;;;10.20;;
3149;SDS011;32503;47.748;8.960;2024-03-22T08:45:07;10.07;;;9.30;;
3149;SDS011;32503;47.748;8.960;2024-03-22T08:47:35;9.93;;;9.03;;
3149;SDS011;32503;47.748;8.960;2024-03-22T08:50:01;9.10;;;8.30;;
3149;SDS011;32503;47.748;8.960;2024-03-22T08:52:28;13.50;;;9.30;;
3149;SDS011;32503;47.748;8.960;2024-03-22T08:54:56;8.77;;;8.00;;
3149;SDS011;32503;47.748;8.960;2024-03-22T08:57:23;9.43;;;8.70;;
3149;SDS011;32503;47.748;8.960;2024-03-22T08:59:51;9.90;;;8.90;;
3149;SDS011;32503;47.748;8.960;2024-03-22T09:02:18;9.87;;;8.57;;
3149;SDS011;32503;47.748;8.960;2024-03-22T09:04:44;7.97;;;7.27;;
3149;SDS011;32503;47.748;8.960;2024-03-22T09:07:12;9.77;;;8.80;;
3149;SDS011;32503;47.748;8.960;2024-03-22T09:09:38;9.00;;;7.87;;
3149;SDS011;32503;47.748;8.960;2024-03-22T09:12:05;7.93;;;7.37;;
3149;SDS011;32503;47.748;8.960;2024-03-22T09:14:32;8.00;;;7.20;;
3149;SDS011;32503;47.748;8.960;2024-03-22T09:17:01;7.17;;;6.77;;
3149;SDS011;32503;47.748;8.960;2024-03-22T09:19:27;7.40;;;6.80;;
3149;SDS011;32503;47.748;8.960;2024-03-22T09:21:55;8.03;;;7.33;;
3149;SDS011;32503;47.748;8.960;2024-03-22T09:24:21;7.40;;;6.87;;
3149;SDS011;32503;47.748;8.960;2024-03-22T09:26:48;5.70;;;5.20;;
3149;SDS011;32503;47.748;8.960;2024-03-22T09:29:14;6.73;;;6.23;;
3149;SDS011;32503;47.748;8.960;2024-03-22T09:31:41;8.37;;;7.70;;
3149;SDS011;32503;47.748;8.960;2024-03-22T09:34:08;6.23;;;5.87;;
3149;SDS011;32503;47.748;8.960;2024-03-22T09:36:35;8.00;;;6.40;;
3149;SDS011;32503;47.748;8.960;2024-03-22T09:39:02;6.10;;;5.70;;
3149;SDS011;32503;47.748;8.960;2024-03-22T09:41:29;6.03;;;5.70;;
3149;SDS011;32503;47.748;8.960;2024-03-22T09:43:58;7.27;;;6.67;;
3149;SDS011;32503;47.748;8.960;2024-03-22T09:46:26;5.70;;;5.30;;
3149;SDS011;32503;47.748;8.960;2024-03-22T09:48:52;6.27;;;5.67;;
3149;SDS011;32503;47.748;8.960;2024-03-22T09:51:22;5.93;;;5.47;;
3149;SDS011;32503;47.748;8.960;2024-03-22T09:53:49;6.67;;;6.27;;
3149;SDS011;32503;47.748;8.960;2024-03-22T09:56:18;9.03;;;6.20;;
3149;SDS011;32503;47.748;8.960;2024-03-22T09:58:46;5.43;;;5.20;;
3149;SDS011;32503;47.748;8.960;2024-03-22T10:01:13;6.03;;;5.63;;
3149;SDS011;32503;47.748;8.960;2024-03-22T10:03:40;5.70;;;5.40;;
3149;SDS011;32503;47.748;8.960;2024-03-22T10:06:08;6.37;;;5.90;;
3149;SDS011;32503;47.748;8.960;2024-03-22T10:08:35;5.03;;;4.73;;
3149;SDS011;32503;47.748;8.960;2024-03-22T10:11:02;5.20;;;4.90;;
3149;SDS011;32503;47.748;8.960;2024-03-22T10:13:28;6.10;;;5.60;;
3149;SDS011;32503;47.748;8.960;2024-03-22T10:15:56;5.37;;;5.07;;
3149;SDS011;32503;47.748;8.960;2024-03-22T10:18:22;5.23;;;5.00;;
3149;SDS011;32503;47.748;8.960;2024-03-22T10:20:58;5.73;;;5.33;;
3149;SDS011;32503;47.748;8.960;2024-03-22T10:23:26;5.43;;;4.57;;
3149;SDS011;32503;47.748;8.960;2024-03-22T10:25:55;4.97;;;4.67;;
3149;SDS011;32503;47.748;8.960;2024-03-22T10:28:23;6.27;;;4.90;;
3149;SDS011;32503;47.748;8.960;2024-03-22T10:30:50;5.00;;;4.70;;
3149;SDS011;32503;47.748;8.960;2024-03-22T10:33:18;4.50;;;4.30;;
3149;SDS011;32503;47.748;8.960;2024-03-22T10:35:47;6.53;;;4.63;;
3149;SDS011;32503;47.748;8.960;2024-03-22T10:38:18;4.27;;;4.07;;
3149;SDS011;32503;47.748;8.960;2024-03-22T10:40:46;4.73;;;4.50;;
3149;SDS011;32503;47.748;8.960;2024-03-22T10:43:14;4.03;;;3.80;;
3149;SDS011;32503;47.748;8.960;2024-03-22T10:45:42;3.87;;;3.67;;
3149;SDS011;32503;47.748;8.960;2024-03-22T10:48:14;5.97;;;3.80;;
3149;SDS011;32503;47.748;8.960;2024-03-22T10:50:43;3.60;;;3.50;;
3149;SDS011;32503;47.748;8.960;2024-03-22T10:53:12;3.40;;;3.30;;
3149;SDS011;32503;47.748;8.960;2024-03-22T10:55:44;3.60;;;3.40;;
3149;SDS011;32503;47.748;8.960;2024-03-22T10:58:17;3.40;;;3.20;;
3149;SDS011;32503;47.748;8.960;2024-03-22T11:00:46;3.07;;;2.90;;
3149;SDS011;32503;47.748;8.960;2024-03-22T11:03:13;2.77;;;2.67;;
3149;SDS011;32503;47.748;8.960;2024-03-22T11:05:44;2.57;;;2.37;;
3149;SDS011;32503;47.748;8.960;2024-03-22T11:08:12;2.47;;;2.27;;
3149;SDS011;32503;47.748;8.960;2024-03-22T11:10:38;2.67;;;2.57;;
3149;SDS011;32503;47.748;8.960;2024-03-22T11:13:06;3.10;;;3.00;;
3149;SDS011;32503;47.748;8.960;2024-03-22T11:15:35;2.70;;;2.60;;
3149;SDS011;32503;47.748;8.960;2024-03-22T11:18:02;3.00;;;2.80;;
3149;SDS011;32503;47.748;8.960;2024-03-22T11:20:28;2.93;;;2.83;;
3149;SDS011;32503;47.748;8.960;2024-03-22T11:22:56;3.20;;;3.07;;
3149;SDS011;32503;47.748;8.960;2024-03-22T11:25:22;3.53;;;3.20;;
3149;SDS011;32503;47.748;8.960;2024-03-22T11:27:49;2.47;;;2.37;;
3149;SDS011;32503;47.748;8.960;2024-03-22T11:30:15;2.80;;;2.60;;
3149;SDS011;32503;47.748;8.960;2024-03-22T11:32:44;3.00;;;2.80;;
3149;SDS011;32503;47.748;8.960;2024-03-22T11:35:10;2.53;;;2.37;;
3149;SDS011;32503;47.748;8.960;2024-03-22T11:37:38;2.60;;;2.50;;
3149;SDS011;32503;47.748;8.960;2024-03-22T11:40:06;3.20;;;3.00;;
3149;SDS011;32503;47.748;8.960;2024-03-22T11:42:35;3.80;;;3.33;;
3149;SDS011;32503;47.748;8.960;2024-03-22T11:45:03;2.97;;;2.80;;
3149;SDS011;32503;47.748;8.960;2024-03-22T11:47:32;3.00;;;2.80;;
3149;SDS011;32503;47.748;8.960;2024-03-22T11:50:01;2.60;;;2.40;;
3149;SDS011;32503;47.748;8.960;2024-03-22T11:52:27;2.40;;;2.30;;
3149;SDS011;32503;47.748;8.960;2024-03-22T11:54:55;2.30;;;2.20;;
3149;SDS011;32503;47.748;8.960;2024-03-22T11:57:22;5.63;;;2.20;;
3149;SDS011;32503;47.748;8.960;2024-03-22T11:59:50;2.50;;;2.40;;
3149;SDS011;32503;47.748;8.960;2024-03-22T12:02:16;2.17;;;1.97;;
3149;SDS011;32503;47.748;8.960;2024-03-22T12:04:45;2.27;;;2.17;;
3149;SDS011;32503;47.748;8.960;2024-03-22T12:07:14;2.00;;;1.90;;
3149;SDS011;32503;47.748;8.960;2024-03-22T12:09:42;2.57;;;2.47;;
3149;SDS011;32503;47.748;8.960;2024-03-22T12:12:10;2.07;;;1.97;;
3149;SDS011;32503;47.748;8.960;2024-03-22T12:14:39;6.00;;;2.30;;
3149;SDS011;32503;47.748;8.960;2024-03-22T12:17:05;2.90;;;2.70;;
3149;SDS011;32503;47.748;8.960;2024-03-22T12:19:33;2.20;;;2.10;;
3149;SDS011;32503;47.748;8.960;2024-03-22T12:21:59;2.23;;;2.13;;
3149;SDS011;32503;47.748;8.960;2024-03-22T12:24:28;2.37;;;2.27;;
3149;SDS011;32503;47.748;8.960;2024-03-22T12:26:54;2.57;;;2.37;;
3149;SDS011;32503;47.748;8.960;2024-03-22T12:29:21;6.93;;;2.73;;
3149;SDS011;32503;47.748;8.960;2024-03-22T12:31:47;4.20;;;2.90;;
3149;SDS011;32503;47.748;8.960;2024-03-22T12:34:15;2.10;;;2.00;;
3149;SDS011;32503;47.748;8.960;2024-03-22T12:36:41;1.80;;;1.70;;
3149;SDS011;32503;47.748;8.960;2024-03-22T12:39:08;1.93;;;1.83;;
3149;SDS011;32503;47.748;8.960;2024-03-22T12:41:36;2.40;;;2.30;;
3149;SDS011;32503;47.748;8.960;2024-03-22T12:44:03;2.13;;;2.03;;
3149;SDS011;32503;47.748;8.960;2024-03-22T12:46:29;1.97;;;1.87;;
3149;SDS011;32503;47.748;8.960;2024-03-22T12:48:56;1.83;;;1.73;;
3149;SDS011;32503;47.748;8.960;2024-03-22T12:51:22;2.50;;;2.40;;
3149;SDS011;32503;47.748;8.960;2024-03-22T12:53:49;2.07;;;1.70;;
3149;SDS011;32503;47.748;8.960;2024-03-22T12:56:15;3.43;;;1.83;;
3149;SDS011;32503;47.748;8.960;2024-03-22T12:58:44;1.90;;;1.80;;
3149;SDS011;32503;47.748;8.960;2024-03-22T13:01:10;2.03;;;1.93;;
3149;SDS011;32503;47.748;8.960;2024-03-22T13:03:37;1.90;;;1.80;;
3149;SDS011;32503;47.748;8.960;2024-03-22T13:06:03;1.90;;;1.80;;
3149;SDS011;32503;47.748;8.960;2024-03-22T13:08:31;3.10;;;1.90;;
3149;SDS011;32503;47.748;8.960;2024-03-22T13:10:57;2.00;;;1.90;;
3149;SDS011;32503;47.748;8.960;2024-03-22T13:13:25;1.97;;;1.67;;
3149;SDS011;32503;47.748;8.960;2024-03-22T13:15:52;3.20;;;1.87;;
3149;SDS011;32503;47.748;8.960;2024-03-22T13:18:22;3.30;;;1.33;;
3149;SDS011;32503;47.748;8.960;2024-03-22T13:20:48;2.73;;;1.50;;
3149;SDS011;32503;47.748;8.960;2024-03-22T13:23:15;1.50;;;1.40;;
3149;SDS011;32503;47.748;8.960;2024-03-22T13:25:41;1.30;;;1.20;;
3149;SDS011;32503;47.748;8.960;2024-03-22T13:28:08;1.83;;;1.40;;
3149;SDS011;32503;47.748;8.960;2024-03-22T13:30:34;2.37;;;2.27;;
3149;SDS011;32503;47.748;8.960;2024-03-22T13:33:04;1.53;;;1.43;;
3149;SDS011;32503;47.748;8.960;2024-03-22T13:35:30;1.33;;;1.23;;
3149;SDS011;32503;47.748;8.960;2024-03-22T13:37:58;2.00;;;1.67;;
3149;SDS011;32503;47.748;8.960;2024-03-22T13:40:25;1.60;;;1.50;;
3149;SDS011;32503;47.748;8.960;2024-03-22T13:42:53;1.43;;;1.33;;
3149;SDS011;32503;47.748;8.960;2024-03-22T13:45:19;2.27;;;2.17;;
3149;SDS011;32503;47.748;8.960;2024-03-22T13:47:46;1.40;;;1.30;;
3149;SDS011;32503;47.748;8.960;2024-03-22T13:50:14;1.80;;;1.70;;
3149;SDS011;32503;47.748;8.960;2024-03-22T13:52:41;1.37;;;1.27;;
3149;SDS011;32503;47.748;8.960;2024-03-22T13:55:08;1.57;;;1.47;;
3149;SDS011;32503;47.748;8.960;2024-03-22T13:57:35;1.80;;;1.70;;
3149;SDS011;32503;47.748;8.960;2024-03-22T14:00:01;1.97;;;1.50;;
3149;SDS011;32503;47.748;8.960;2024-03-22T14:02:32;1.70;;;1.60;;
3149;SDS011;32503;47.748;8.960;2024-03-22T14:04:58;1.90;;;1.80;;
3149;SDS011;32503;47.748;8.960;2024-03-22T14:07:26;1.33;;;1.23;;
3149;SDS011;32503;47.748;8.960;2024-03-22T14:09:52;1.70;;;1.60;;
3149;SDS011;32503;47.748;8.960;2024-03-22T14:12:19;2.00;;;1.90;;
3149;SDS011;32503;47.748;8.960;2024-03-22T14:14:45;1.77;;;1.50;;
3149;SDS011;32503;47.748;8.960;2024-03-22T14:17:12;1.30;;;1.20;;
3149;SDS011;32503;47.748;8.960;2024-03-22T14:19:39;1.90;;;1.80;;
3149;SDS011;32503;47.748;8.960;2024-03-22T14:22:06;1.40;;;1.30;;
3149;SDS011;32503;47.748;8.960;2024-03-22T14:24:33;2.57;;;1.50;;
3149;SDS011;32503;47.748;8.960;2024-03-22T14:27:00;2.53;;;2.43;;
3149;SDS011;32503;47.748;8.960;2024-03-22T14:29:26;1.63;;;1.53;;
3149;SDS011;32503;47.748;8.960;2024-03-22T14:31:53;1.87;;;1.43;;
3149;SDS011;32503;47.748;8.960;2024-03-22T14:34:20;1.70;;;1.60;;
3149;SDS011;32503;47.748;8.960;2024-03-22T14:36:47;1.53;;;1.43;;
3149;SDS011;32503;47.748;8.960;2024-03-22T14:39:13;1.27;;;1.17;;
3149;SDS011;32503;47.748;8.960;2024-03-22T14:41:41;1.63;;;1.10;;
3149;SDS011;32503;47.748;8.960;2024-03-22T14:44:08;3.33;;;2.00;;
3149;SDS011;32503;47.748;8.960;2024-03-22T14:46:35;2.30;;;1.13;;
3149;SDS011;32503;47.748;8.960;2024-03-22T14:49:01;2.80;;;1.17;;
3149;SDS011;32503;47.748;8.960;2024-03-22T14:51:28;1.57;;;1.47;;
3149;SDS011;32503;47.748;8.960;2024-03-22T14:53:54;1.50;;;1.40;;
3149;SDS011;32503;47.748;8.960;2024-03-22T14:56:22;1.47;;;1.37;;
3149;SDS011;32503;47.748;8.960;2024-03-22T14:58:49;1.53;;;1.43;;